Time;durP1;ratioP1;P1;durP2;ratioP2;P2;SDS_P1;SDS_P2;PMS_P1;PMS_P2;Temp;Humidity;BMP_temperature;BMP_pressure;BME280_temperature;BME280_humidity;BME280_pressure;Samples;Min_cycle;Max_cycle;Signal;HPM_P1;HPM_P2
2023/06/10 00:00:50;;;;;;;19.10;9.90;;;;;;;20.89;69.28;98722.44;4375080;32;34077;-83
2023/06/10 00:03:18;;;;;;;17.35;9.52;;;;;;;20.85;69.22;98720.81;4375957;32;34125;-86
2023/06/10 00:05:46;;;;;;;14.70;9.85;;;;;;;20.79;69.54;98732.44;4376186;32;34326;-86
2023/06/10 00:08:15;;;;;;;13.43;9.10;;;;;;;20.62;70.14;98730.41;4373329;32;33781;-83
2023/06/10 00:10:43;;;;;;;11.70;8.48;;;;;;;20.42;71.34;98725.78;4375641;32;33879;-82
2023/06/10 00:13:11;;;;;;;15.95;8.98;;;;;;;20.53;71.15;98717.56;4362384;32;34642;-84
2023/06/10 00:15:38;;;;;;;15.13;9.10;;;;;;;20.65;70.76;98714.50;4375374;32;33537;-83
2023/06/10 00:18:09;;;;;;;12.37;9.00;;;;;;;20.77;70.25;98729.00;4365938;32;33603;-83
2023/06/10 00:20:37;;;;;;;17.23;8.88;;;;;;;20.78;70.44;98717.53;4374293;32;34867;-82
2023/06/10 00:23:08;;;;;;;12.23;8.75;;;;;;;20.74;70.38;98710.66;4375759;32;34659;-82
2023/06/10 00:25:35;;;;;;;14.77;8.40;;;;;;;20.72;70.64;98719.53;4374999;32;33636;-82
2023/06/10 00:28:03;;;;;;;13.48;8.02;;;;;;;20.77;70.48;98707.94;4367384;32;35416;-82
2023/06/10 00:30:30;;;;;;;11.40;8.18;;;;;;;20.90;70.03;98710.97;4363265;32;33784;-83
2023/06/10 00:32:59;;;;;;;17.42;9.18;;;;;;;20.83;70.35;98709.47;4362475;32;34763;-83
2023/06/10 00:35:26;;;;;;;16.85;8.48;;;;;;;20.85;70.31;98711.13;4375556;32;33523;-84
2023/06/10 00:37:55;;;;;;;12.77;8.77;;;;;;;20.79;70.28;98708.72;4362374;32;34038;-84
2023/06/10 00:40:22;;;;;;;10.05;7.85;;;;;;;20.80;70.23;98713.09;4360553;32;34266;-83
2023/06/10 00:42:51;;;;;;;12.57;7.70;;;;;;;20.73;70.57;98724.75;4360506;32;34927;-82
2023/06/10 00:45:21;;;;;;;12.80;8.07;;;;;;;20.77;70.29;98714.97;4361144;32;34314;-84
2023/06/10 00:47:49;;;;;;;10.13;7.32;;;;;;;20.53;71.20;98720.19;4374663;32;33897;-85
2023/06/10 00:50:16;;;;;;;9.73;7.62;;;;;;;20.69;70.54;98725.78;4375501;32;34279;-82
2023/06/10 00:52:46;;;;;;;13.15;7.40;;;;;;;20.53;71.20;98722.84;4361438;32;33692;-83
2023/06/10 00:55:16;;;;;;;11.90;7.65;;;;;;;20.55;71.12;98726.25;4347280;32;32904;-83
2023/06/10 00:57:45;;;;;;;10.00;7.18;;;;;;;20.70;70.62;98727.50;4349695;32;33875;-84
2023/06/10 01:00:13;;;;;;;9.88;7.30;;;;;;;20.68;70.77;98723.19;4360629;32;34757;-84
2023/06/10 01:02:41;;;;;;;9.65;8.23;;;;;;;20.59;71.16;98727.87;4360657;32;34189;-83
2023/06/10 01:05:09;;;;;;;10.63;7.68;;;;;;;20.53;71.52;98724.56;4360804;32;33173;-83
2023/06/10 01:07:43;;;;;;;10.98;7.62;;;;;;;20.67;70.95;98724.97;4360261;32;34031;-84
2023/06/10 01:10:25;;;;;;;15.10;8.38;;;;;;;20.68;70.98;98724.03;4360360;32;34276;-84
2023/06/10 01:12:59;;;;;;;13.05;8.27;;;;;;;20.69;71.34;98730.19;4360159;32;34689;-84
2023/06/10 01:15:27;;;;;;;12.68;8.23;;;;;;;20.67;71.23;98729.38;4359643;32;34439;-87
2023/06/10 01:18:02;;;;;;;9.68;7.07;;;;;;;20.59;71.56;98724.38;4347907;32;34327;-83
2023/06/10 01:20:31;;;;;;;8.90;7.53;;;;;;;20.82;70.73;98713.87;4366965;32;34937;-84
2023/06/10 01:23:00;;;;;;;11.05;8.38;;;;;;;20.87;70.36;98722.50;4360633;32;34508;-83
2023/06/10 01:25:29;;;;;;;13.00;8.02;;;;;;;20.88;70.21;98724.22;4366022;32;33040;-84
2023/06/10 01:28:21;;;;;;;14.23;8.02;;;;;;;20.78;70.53;98735.13;4358127;32;34919;-82
2023/06/10 01:31:07;;;;;;;12.02;7.10;;;;;;;20.87;70.61;98722.50;4373093;32;33995;-86
2023/06/10 01:33:37;;;;;;;14.15;7.55;;;;;;;20.93;70.28;98724.03;4360502;32;34071;-84
2023/06/10 01:36:05;;;;;;;19.15;7.43;;;;;;;20.77;70.67;98728.16;4346796;32;34204;-84
2023/06/10 01:38:41;;;;;;;10.63;7.30;;;;;;;20.79;70.70;98719.25;4360638;32;34771;-85
2023/06/10 01:41:13;;;;;;;11.77;7.12;;;;;;;20.95;70.31;98716.06;4363230;32;35016;-85
2023/06/10 01:43:43;;;;;;;12.02;7.40;;;;;;;20.94;70.40;98719.63;4361089;32;33511;-84
2023/06/10 01:46:14;;;;;;;14.90;8.35;;;;;;;20.94;70.38;98714.34;4361746;32;32781;-83
2023/06/10 01:48:42;;;;;;;13.82;8.27;;;;;;;20.75;70.96;98724.69;4361730;32;33762;-84
2023/06/10 01:51:09;;;;;;;11.40;7.53;;;;;;;20.79;70.95;98731.56;4360012;32;34149;-85
2023/06/10 01:53:37;;;;;;;13.55;8.90;;;;;;;20.63;71.61;98720.72;4360092;32;33804;-87
2023/06/10 01:56:05;;;;;;;11.93;8.27;;;;;;;20.45;72.65;98731.84;4360086;32;33638;-83
2023/06/10 01:58:32;;;;;;;11.52;8.00;;;;;;;20.65;71.60;98726.81;4363691;32;33996;-84
2023/06/10 02:01:00;;;;;;;13.27;7.80;;;;;;;20.80;71.04;98733.31;4372147;32;33648;-84
2023/06/10 02:03:28;;;;;;;11.07;8.90;;;;;;;20.67;71.55;98724.97;4374942;32;33791;-82
2023/06/10 02:05:55;;;;;;;10.35;8.15;;;;;;;20.73;71.14;98721.28;4374780;32;33249;-84
2023/06/10 02:08:23;;;;;;;14.48;8.15;;;;;;;20.80;70.84;98715.72;4374029;32;34441;-84
2023/06/10 02:10:53;;;;;;;12.13;8.98;;;;;;;20.73;70.90;98708.94;4370390;32;33904;-85
2023/06/10 02:13:20;;;;;;;11.80;8.40;;;;;;;20.72;70.96;98712.50;4360619;32;33850;-84
2023/06/10 02:15:53;;;;;;;13.05;8.55;;;;;;;20.76;70.74;98711.47;4359801;32;33379;-83
2023/06/10 02:18:21;;;;;;;13.88;8.93;;;;;;;20.79;70.62;98715.75;4359236;32;34060;-83
2023/06/10 02:20:49;;;;;;;12.45;8.90;;;;;;;20.80;70.43;98713.09;4360097;32;34171;-84
2023/06/10 02:23:17;;;;;;;13.18;9.25;;;;;;;20.69;70.83;98727.56;4360815;32;33745;-85
2023/06/10 02:25:44;;;;;;;14.32;9.13;;;;;;;20.79;70.50;98726.31;4374721;32;33508;-86
2023/06/10 02:28:11;;;;;;;14.38;8.77;;;;;;;20.86;70.25;98719.91;4372877;32;34088;-84
2023/06/10 02:30:41;;;;;;;15.63;11.10;;;;;;;20.60;71.06;98732.22;4372688;32;35080;-85
2023/06/10 02:33:11;;;;;;;15.98;10.32;;;;;;;20.42;71.80;98722.31;4361712;32;33343;-86
2023/06/10 02:35:39;;;;;;;15.13;10.68;;;;;;;20.37;72.34;98726.84;4348375;32;34372;-84
2023/06/10 02:38:07;;;;;;;14.68;10.18;;;;;;;20.26;72.86;98724.56;4348476;32;35703;-84
2023/06/10 02:40:34;;;;;;;13.48;9.90;;;;;;;20.30;72.68;98725.34;4374701;32;35166;-84
2023/06/10 02:43:02;;;;;;;19.85;10.80;;;;;;;20.35;72.44;98724.28;4361799;32;34378;-84
2023/06/10 02:45:30;;;;;;;17.15;8.80;;;;;;;20.30;72.91;98725.34;4363855;32;34426;-85
2023/06/10 02:47:58;;;;;;;12.90;9.38;;;;;;;20.40;72.34;98724.97;4376585;32;33714;-86
2023/06/10 02:50:27;;;;;;;12.52;9.63;;;;;;;20.39;72.11;98728.53;4375057;32;35061;-84
2023/06/10 02:52:55;;;;;;;12.00;8.75;;;;;;;20.38;72.23;98729.44;4361623;32;33957;-85
2023/06/10 02:55:26;;;;;;;14.70;9.18;;;;;;;20.56;71.46;98729.75;4361256;32;33644;-85
2023/06/10 02:57:54;;;;;;;12.98;9.63;;;;;;;20.47;71.59;98737.94;4361336;32;33892;-86
2023/06/10 03:00:23;;;;;;;12.70;8.82;;;;;;;20.46;71.52;98736.22;4368274;32;34286;-84
2023/06/10 03:02:51;;;;;;;13.40;9.38;;;;;;;20.45;71.62;98727.44;4347776;32;33996;-84
2023/06/10 03:05:19;;;;;;;13.52;8.68;;;;;;;20.58;71.01;98738.47;4362204;32;33509;-84
2023/06/10 03:07:48;;;;;;;11.93;9.07;;;;;;;20.54;71.06;98740.34;4376664;32;33845;-84
2023/06/10 03:10:16;;;;;;;13.13;8.40;;;;;;;20.71;70.45;98734.47;4368678;32;34064;-84
2023/06/10 03:12:43;;;;;;;12.00;9.07;;;;;;;20.45;71.30;98731.84;4360667;32;33862;-85
2023/06/10 03:15:12;;;;;;;12.45;8.60;;;;;;;20.24;72.32;98728.19;4361544;32;34480;-84
2023/06/10 03:17:40;;;;;;;11.82;9.00;;;;;;;20.39;71.70;98731.16;4361296;32;34076;-87
2023/06/10 03:20:10;;;;;;;12.02;9.23;;;;;;;20.50;71.22;98730.84;4361215;32;34015;-84
2023/06/10 03:22:38;;;;;;;13.23;9.43;;;;;;;20.40;71.65;98734.66;4350704;32;34414;-84
2023/06/10 03:25:07;;;;;;;75.65;11.73;;;;;;;20.34;71.95;98743.63;4347823;32;33316;-85
2023/06/10 03:27:36;;;;;;;125.70;12.00;;;;;;;20.20;72.29;98737.97;4361493;32;33508;-87
2023/06/10 03:30:04;;;;;;;13.93;9.20;;;;;;;19.83;73.51;98739.12;4359050;32;35048;-83
2023/06/10 03:32:32;;;;;;;14.40;9.15;;;;;;;20.10;72.46;98747.06;4375576;32;33485;-84
2023/06/10 03:34:59;;;;;;;14.48;9.75;;;;;;;20.00;73.26;98743.00;4362503;32;33540;-85
2023/06/10 03:37:28;;;;;;;15.75;9.75;;;;;;;20.01;73.37;98748.22;4376040;32;33855;-84
2023/06/10 03:39:55;;;;;;;11.57;9.13;;;;;;;20.05;73.36;98749.84;4371692;32;35012;-84
2023/06/10 03:42:23;;;;;;;11.65;9.40;;;;;;;20.06;73.42;98745.44;4374544;32;33637;-85
2023/06/10 03:44:51;;;;;;;12.73;9.02;;;;;;;20.27;72.93;98750.00;4376010;32;33110;-87
2023/06/10 03:47:19;;;;;;;14.15;8.57;;;;;;;20.04;73.43;98747.25;4375338;32;34071;-86
2023/06/10 03:49:46;;;;;;;13.55;8.73;;;;;;;20.35;72.26;98753.25;4363532;32;34603;-84
2023/06/10 03:52:14;;;;;;;10.65;8.15;;;;;;;20.35;72.19;98761.13;4360395;32;33828;-86
2023/06/10 03:54:42;;;;;;;11.93;8.23;;;;;;;20.36;71.93;98752.31;4360858;32;33539;-83
2023/06/10 03:57:09;;;;;;;11.82;8.02;;;;;;;20.59;71.09;98746.31;4364325;32;34026;-86
2023/06/10 03:59:37;;;;;;;12.18;9.10;;;;;;;20.54;71.35;98742.13;4364120;32;34119;-86
2023/06/10 04:02:06;;;;;;;10.70;7.43;;;;;;;20.55;71.19;98746.47;4360952;32;35032;-85
2023/06/10 04:04:34;;;;;;;16.67;8.18;;;;;;;20.60;71.08;98747.16;4360932;32;33286;-83
2023/06/10 04:07:03;;;;;;;14.55;10.13;;;;;;;20.65;70.86;98739.97;4362257;32;35000;-85
2023/06/10 04:09:32;;;;;;;12.75;10.13;;;;;;;20.51;71.79;98734.31;4365218;32;34891;-85
2023/06/10 04:12:00;;;;;;;16.25;9.95;;;;;;;20.46;72.30;98738.88;4360723;32;34379;-85
2023/06/10 04:14:27;;;;;;;12.15;9.50;;;;;;;20.47;72.13;98732.69;4360692;32;34337;-87
2023/06/10 04:16:55;;;;;;;14.20;9.77;;;;;;;20.91;70.36;98728.53;4361217;32;33108;-87
2023/06/10 04:19:23;;;;;;;12.82;9.32;;;;;;;21.24;70.50;98729.03;4365597;32;34613;-87
2023/06/10 04:21:51;;;;;;;12.98;9.25;;;;;;;21.51;69.12;98718.38;4361006;32;33716;-84
2023/06/10 04:24:20;;;;;;;12.37;9.55;;;;;;;21.85;68.41;98720.53;4361093;32;33947;-84
2023/06/10 04:26:48;;;;;;;13.23;9.10;;;;;;;22.01;67.03;98720.78;4360643;32;34753;-83
2023/06/10 04:29:16;;;;;;;14.38;8.45;;;;;;;22.32;66.29;98729.19;4360248;32;34195;-85
2023/06/10 04:31:46;;;;;;;10.98;7.93;;;;;;;22.50;65.43;98729.31;4360033;32;33926;-84
2023/06/10 04:34:14;;;;;;;12.02;6.82;;;;;;;22.71;65.11;98728.41;4360809;32;33616;-84
2023/06/10 04:36:42;;;;;;;9.27;6.78;;;;;;;22.91;63.98;98716.09;4360068;32;33861;-86
2023/06/10 04:39:10;;;;;;;7.87;6.07;;;;;;;22.72;63.59;98723.97;4374840;32;32832;-87
2023/06/10 04:41:38;;;;;;;9.82;6.20;;;;;;;22.88;62.56;98724.16;4362381;32;34030;-86
2023/06/10 04:44:06;;;;;;;6.95;5.03;;;;;;;23.04;62.21;98725.25;4375918;32;33832;-87
2023/06/10 04:46:34;;;;;;;8.80;6.37;;;;;;;23.72;61.02;98723.84;4372680;32;33906;-83
2023/06/10 04:49:05;;;;;;;8.68;5.43;;;;;;;23.87;61.73;98721.41;4365424;32;33981;-85
2023/06/10 04:51:32;;;;;;;6.47;4.57;;;;;;;24.12;60.89;98716.59;4361047;32;33737;-86
2023/06/10 04:54:03;;;;;;;7.47;5.20;;;;;;;24.45;59.13;98716.75;4359834;32;33705;-85
2023/06/10 04:56:31;;;;;;;6.87;4.95;;;;;;;24.73;58.68;98721.47;4361065;32;34726;-85
2023/06/10 04:59:02;;;;;;;6.22;4.78;;;;;;;25.05;58.65;98721.56;4359986;32;34891;-86
2023/06/10 05:01:48;;;;;;;7.97;5.50;;;;;;;24.76;58.10;98716.00;4361088;32;34490;-85
2023/06/10 05:04:15;;;;;;;8.38;5.18;;;;;;;24.66;59.11;98722.75;4361547;32;34302;-85
2023/06/10 05:06:43;;;;;;;8.20;5.47;;;;;;;24.29;58.42;98723.72;4362618;32;34718;-84
2023/06/10 05:09:10;;;;;;;7.60;4.50;;;;;;;24.53;57.83;98729.59;4375029;32;34037;-84
2023/06/10 05:11:38;;;;;;;7.75;4.30;;;;;;;24.97;57.21;98716.69;4375442;32;34005;-85
2023/06/10 05:14:06;;;;;;;7.95;4.90;;;;;;;24.45;57.00;98729.13;4368123;32;34374;-85
2023/06/10 05:16:33;;;;;;;8.25;4.68;;;;;;;24.86;57.55;98728.78;4369665;32;34791;-83
2023/06/10 05:19:01;;;;;;;8.05;4.30;;;;;;;24.57;57.52;98733.81;4360451;32;33951;-85
2023/06/10 05:21:30;;;;;;;8.45;4.43;;;;;;;24.36;58.28;98742.78;4360526;32;34047;-84
2023/06/10 05:23:58;;;;;;;6.22;4.40;;;;;;;24.45;58.82;98729.13;4364783;32;34478;-86
2023/06/10 05:26:26;;;;;;;6.65;4.43;;;;;;;24.41;59.02;98735.53;4364042;32;33755;-83
2023/06/10 05:28:53;;;;;;;8.07;4.70;;;;;;;23.83;60.27;98735.69;4360736;32;34024;-87
2023/06/10 05:31:21;;;;;;;7.50;4.25;;;;;;;23.66;60.79;98739.12;4367282;32;34875;-84
2023/06/10 05:33:48;;;;;;;6.30;4.32;;;;;;;23.90;60.12;98739.78;4370145;32;34434;-88
2023/06/10 05:36:16;;;;;;;10.60;4.45;;;;;;;24.12;60.78;98742.22;4366260;32;33977;-84
2023/06/10 05:38:43;;;;;;;10.27;5.05;;;;;;;24.20;59.46;98738.25;4375268;32;33522;-84
2023/06/10 05:41:12;;;;;;;9.48;5.10;;;;;;;23.19;62.55;98735.13;4373639;32;33796;-87
2023/06/10 05:43:40;;;;;;;7.45;4.78;;;;;;;23.51;62.04;98730.13;4357800;32;34476;-84
2023/06/10 05:46:07;;;;;;;7.93;4.68;;;;;;;23.87;61.76;98739.94;4359700;32;34727;-84
2023/06/10 05:48:35;;;;;;;8.52;4.12;;;;;;;24.12;61.45;98737.78;4360138;32;33957;-84
2023/06/10 05:51:02;;;;;;;9.18;4.65;;;;;;;23.66;61.21;98739.12;4359821;32;34016;-86
2023/06/10 05:53:30;;;;;;;8.98;4.30;;;;;;;23.29;62.33;98739.03;4359990;32;33533;-85
2023/06/10 05:55:57;;;;;;;6.10;4.03;;;;;;;24.32;60.21;98741.25;4359589;32;34590;-86
2023/06/10 05:58:25;;;;;;;7.00;4.37;;;;;;;24.38;59.58;98740.94;4371003;32;35081;-85
2023/06/10 06:00:52;;;;;;;7.45;4.05;;;;;;;24.46;59.25;98744.09;4374808;32;34598;-84
2023/06/10 06:03:20;;;;;;;10.07;4.20;;;;;;;24.00;58.06;98747.19;4374251;32;33549;-83
2023/06/10 06:05:48;;;;;;;5.80;3.85;;;;;;;23.86;58.48;98741.72;4377361;32;34741;-84
2023/06/10 06:08:18;;;;;;;7.68;4.32;;;;;;;24.31;59.79;98742.19;4365642;32;35118;-88
2023/06/10 06:10:47;;;;;;;9.00;3.80;;;;;;;23.65;59.61;98738.28;4364918;32;34209;-85
2023/06/10 06:13:15;;;;;;;6.50;4.62;;;;;;;24.22;57.91;98746.16;4364565;32;33552;-83
2023/06/10 06:15:43;;;;;;;9.25;4.80;;;;;;;23.16;60.94;98751.13;4364774;32;34025;-85
2023/06/10 06:18:11;;;;;;;8.75;4.15;;;;;;;23.57;62.34;98737.78;4363781;32;34039;-84
2023/06/10 06:20:39;;;;;;;6.57;4.60;;;;;;;23.47;59.75;98742.63;4358035;32;215600;-85
2023/06/10 06:23:08;;;;;;;6.05;3.50;;;;;;;24.06;59.90;98746.06;4364744;32;34289;-85
2023/06/10 06:25:38;;;;;;;12.37;3.72;;;;;;;23.99;58.65;98747.28;4364189;32;33993;-85
2023/06/10 06:28:07;;;;;;;7.53;3.87;;;;;;;23.73;58.88;98752.03;4363566;32;34218;-84
2023/06/10 06:30:35;;;;;;;6.70;4.10;;;;;;;23.62;58.94;98749.00;4364328;32;33951;-86
2023/06/10 06:33:03;;;;;;;6.62;3.80;;;;;;;23.66;59.02;98750.59;4364482;32;33622;-84
2023/06/10 06:35:32;;;;;;;5.37;3.50;;;;;;;24.07;58.13;98755.72;4370197;32;33416;-85
2023/06/10 06:37:59;;;;;;;5.03;3.35;;;;;;;24.55;58.42;98759.53;4360855;32;34880;-85
2023/06/10 06:40:27;;;;;;;6.37;2.97;;;;;;;24.53;57.37;98756.09;4365572;32;33688;-85
2023/06/10 06:42:55;;;;;;;8.50;3.50;;;;;;;24.49;56.04;98754.53;4372279;32;33106;-86
2023/06/10 06:45:22;;;;;;;6.25;3.90;;;;;;;24.21;58.54;98747.94;4374249;32;34771;-85
2023/06/10 06:47:51;;;;;;;5.87;3.55;;;;;;;24.42;56.34;98761.09;4372152;32;33603;-84
2023/06/10 06:50:19;;;;;;;9.20;3.55;;;;;;;23.99;57.34;98763.16;4367356;32;34748;-88
2023/06/10 06:52:46;;;;;;;9.45;3.62;;;;;;;24.23;56.14;98756.66;4364886;32;33169;-86
2023/06/10 06:55:14;;;;;;;5.30;3.20;;;;;;;24.09;57.14;98760.91;4364087;32;33837;-85
2023/06/10 06:57:41;;;;;;;6.10;3.75;;;;;;;24.28;56.13;98753.78;4363958;32;34239;-86
2023/06/10 07:00:09;;;;;;;6.57;3.65;;;;;;;23.82;58.94;98757.81;4371088;32;33677;-86
2023/06/10 07:02:37;;;;;;;13.23;3.90;;;;;;;22.93;59.81;98759.22;4371046;32;34080;-85
2023/06/10 07:05:05;;;;;;;6.95;3.60;;;;;;;22.32;61.48;98758.25;4364069;32;33750;-88
2023/06/10 07:07:33;;;;;;;7.87;3.70;;;;;;;23.23;60.76;98757.84;4370453;32;35144;-86
2023/06/10 07:10:01;;;;;;;7.32;3.80;;;;;;;23.42;59.72;98751.72;4372410;32;34756;-88
2023/06/10 07:12:29;;;;;;;7.40;4.32;;;;;;;23.36;59.36;98752.84;4363372;32;33337;-89
2023/06/10 07:14:57;;;;;;;7.10;4.25;;;;;;;22.73;60.70;98765.31;4363203;32;34935;-88
2023/06/10 07:17:26;;;;;;;8.60;4.18;;;;;;;22.77;61.58;98753.72;4361917;32;33820;-87
2023/06/10 07:19:59;;;;;;;6.35;3.75;;;;;;;23.34;61.76;98767.09;4360886;32;34619;-86
2023/06/10 07:22:27;;;;;;;7.20;3.72;;;;;;;23.79;58.56;98759.69;4370392;32;33435;-88
2023/06/10 07:24:55;;;;;;;8.85;4.45;;;;;;;23.51;58.51;98762.72;4360924;32;33760;-91
2023/06/10 07:27:22;;;;;;;7.40;4.32;;;;;;;23.44;60.13;98765.72;4366590;32;34025;-87
2023/06/10 07:29:51;;;;;;;7.47;4.00;;;;;;;22.91;60.43;98771.59;4365903;32;33963;-86
2023/06/10 07:32:22;;;;;;;5.50;3.72;;;;;;;23.59;58.73;98769.44;4375277;32;34027;-86
2023/06/10 07:34:50;;;;;;;8.57;4.05;;;;;;;23.25;58.60;98763.06;4375984;32;34659;-86
2023/06/10 07:37:19;;;;;;;7.07;4.45;;;;;;;23.57;60.03;98776.63;4362157;32;35122;-86
2023/06/10 07:39:47;;;;;;;8.20;4.30;;;;;;;23.58;58.90;98773.03;4370972;32;33873;-86
2023/06/10 07:42:14;;;;;;;6.95;4.30;;;;;;;23.40;58.25;98770.31;4362124;32;34124;-86
2023/06/10 07:44:42;;;;;;;6.40;3.95;;;;;;;23.45;59.60;98770.09;4360950;32;33851;-88
2023/06/10 07:47:09;;;;;;;10.35;4.55;;;;;;;23.47;59.40;98770.88;4361312;32;34290;-85
2023/06/10 07:49:37;;;;;;;7.85;4.28;;;;;;;23.71;58.68;98759.16;4364731;32;33560;-89
2023/06/10 07:52:05;;;;;;;6.43;4.57;;;;;;;24.53;58.40;98764.03;4366261;32;33232;-85
2023/06/10 07:54:33;;;;;;;7.50;4.47;;;;;;;25.13;57.46;98758.34;4376154;32;34111;-92
2023/06/10 07:57:01;;;;;;;7.20;4.68;;;;;;;25.00;56.27;98773.97;4375978;32;33971;-87
2023/06/10 07:59:29;;;;;;;6.55;4.45;;;;;;;24.89;55.95;98771.91;4370760;32;33980;-85
2023/06/10 08:01:56;;;;;;;7.03;4.80;;;;;;;25.08;54.27;98762.97;4368962;32;33250;-85
2023/06/10 08:04:24;;;;;;;7.57;4.15;;;;;;;25.43;55.62;98761.13;4373684;32;33950;-86
2023/06/10 08:06:52;;;;;;;7.47;4.40;;;;;;;25.53;54.49;98762.31;4376060;32;34131;-86
2023/06/10 08:09:21;;;;;;;8.10;4.10;;;;;;;25.23;54.49;98760.41;4368830;32;33900;-86
2023/06/10 08:11:49;;;;;;;6.55;4.47;;;;;;;24.28;55.97;98780.25;4361247;32;33797;-85
2023/06/10 08:14:17;;;;;;;7.93;4.30;;;;;;;23.71;56.70;98768.91;4360558;32;34691;-87
2023/06/10 08:16:44;;;;;;;7.03;4.18;;;;;;;24.19;58.05;98771.00;4360100;32;35158;-85
2023/06/10 08:19:12;;;;;;;8.40;4.30;;;;;;;24.40;55.57;98776.22;4360951;32;33784;-86
2023/06/10 08:21:39;;;;;;;6.90;4.32;;;;;;;24.88;55.43;98764.88;4360271;32;33629;-90
2023/06/10 08:24:07;;;;;;;8.52;3.85;;;;;;;24.97;55.20;98764.41;4363939;32;34003;-85
2023/06/10 08:26:35;;;;;;;6.85;4.32;;;;;;;25.05;54.29;98763.16;4360835;32;34881;-85
2023/06/10 08:29:02;;;;;;;7.20;4.03;;;;;;;24.58;54.16;98762.00;4372659;32;33859;-89
2023/06/10 08:31:30;;;;;;;5.50;3.87;;;;;;;24.65;55.21;98759.91;4363286;32;33771;-85
2023/06/10 08:33:58;;;;;;;7.55;3.70;;;;;;;24.56;54.65;98763.91;4367393;32;33836;-92
2023/06/10 08:36:25;;;;;;;6.87;4.10;;;;;;;24.87;53.88;98768.47;4375562;32;34209;-86
2023/06/10 08:38:52;;;;;;;5.70;3.72;;;;;;;25.26;53.26;98755.88;4375199;32;33906;-89
2023/06/10 08:41:22;;;;;;;4.97;3.78;;;;;;;24.78;54.52;98758.37;4375663;32;34248;-86
2023/06/10 08:44:10;;;;;;;6.72;4.00;;;;;;;25.11;54.50;98754.88;4360810;32;33870;-86
2023/06/10 08:46:38;;;;;;;6.05;3.58;;;;;;;25.27;53.92;98758.47;4374829;32;33930;-90
2023/06/10 08:49:09;;;;;;;7.30;4.18;;;;;;;25.18;53.14;98750.97;4367669;32;34098;-85
2023/06/10 08:51:38;;;;;;;5.75;3.78;;;;;;;25.47;51.23;98746.75;4364731;32;33480;-89
2023/06/10 08:54:11;;;;;;;6.65;4.03;;;;;;;25.46;50.09;98739.75;4364647;32;33956;-85
2023/06/10 08:56:39;;;;;;;6.47;4.60;;;;;;;25.48;51.76;98749.31;4348576;32;33886;-85
2023/06/10 08:59:09;;;;;;;6.62;4.53;;;;;;;24.45;52.74;98751.19;4362031;32;34213;-92
2023/06/10 09:01:36;;;;;;;7.37;4.22;;;;;;;24.66;52.49;98753.66;4367098;32;33703;-93
2023/06/10 09:04:04;;;;;;;7.65;4.25;;;;;;;24.59;51.67;98747.84;4360566;32;33680;-85
2023/06/10 09:06:33;;;;;;;8.52;4.40;;;;;;;24.66;51.40;98738.66;4360500;32;34054;-93
2023/06/10 09:09:01;;;;;;;10.43;4.78;;;;;;;24.99;52.42;98725.41;4349957;32;34716;-86
2023/06/10 09:11:31;;;;;;;6.28;3.95;;;;;;;25.43;49.71;98729.28;4362206;32;33167;-92
2023/06/10 09:13:59;;;;;;;9.68;4.65;;;;;;;25.77;48.66;98727.41;4361993;32;33665;-92
2023/06/10 09:16:26;;;;;;;7.03;4.53;;;;;;;25.30;49.34;98728.22;4362309;32;33300;-85
2023/06/10 09:18:55;;;;;;;7.37;4.15;;;;;;;24.71;51.40;98733.09;4360684;32;34211;-85
2023/06/10 09:21:23;;;;;;;6.35;4.12;;;;;;;24.73;51.91;98732.06;4365582;32;34262;-84
2023/06/10 09:23:51;;;;;;;8.38;4.75;;;;;;;25.08;50.83;98718.75;4375173;32;34770;-84
2023/06/10 09:26:18;;;;;;;7.32;3.60;;;;;;;25.30;48.97;98722.94;4367946;32;34175;-89
2023/06/10 09:28:52;;;;;;;6.20;3.92;;;;;;;25.25;49.98;98715.22;4368685;32;34039;-91
2023/06/10 09:31:21;;;;;;;6.55;4.10;;;;;;;25.59;50.58;98711.56;4360275;32;34290;-84
2023/06/10 09:33:49;;;;;;;5.85;3.80;;;;;;;25.66;48.27;98715.59;4372170;32;34033;-90
2023/06/10 09:36:24;;;;;;;7.30;4.07;;;;;;;25.22;48.31;98713.59;4375363;32;34290;-84
2023/06/10 09:38:56;;;;;;;6.78;4.30;;;;;;;25.30;48.86;98709.66;4358854;32;33843;-86
2023/06/10 09:41:32;;;;;;;5.20;3.37;;;;;;;26.20;48.03;98708.09;4352075;32;33034;-88
2023/06/10 09:44:02;;;;;;;7.82;3.83;;;;;;;26.03;48.20;98710.03;4364443;32;34653;-89
2023/06/10 09:46:34;;;;;;;5.10;3.58;;;;;;;26.29;47.54;98705.84;4360143;32;34831;-86
2023/06/10 09:49:02;;;;;;;7.95;3.83;;;;;;;26.37;45.58;98712.44;4346928;32;35003;-86
2023/06/10 09:51:29;;;;;;;6.72;3.83;;;;;;;26.36;46.71;98708.03;4364294;32;34458;-86
2023/06/10 09:53:58;;;;;;;5.53;3.70;;;;;;;26.43;46.73;98711.19;4356499;32;33467;-91
2023/06/10 09:56:33;;;;;;;5.00;3.25;;;;;;;26.81;47.21;98703.59;4359256;32;34167;-86
2023/06/10 09:59:02;;;;;;;6.20;3.45;;;;;;;26.50;45.16;98701.09;4373824;32;33904;-89
2023/06/10 10:01:30;;;;;;;5.28;3.28;;;;;;;26.45;45.62;98698.69;4360169;32;33540;-88
2023/06/10 10:03:58;;;;;;;5.78;3.45;;;;;;;26.11;46.30;98707.78;4359869;32;33919;-86
2023/06/10 10:06:26;;;;;;;7.28;3.70;;;;;;;26.63;44.37;98699.41;4349631;32;34015;-86
2023/06/10 10:08:55;;;;;;;5.37;3.22;;;;;;;26.38;50.19;98716.78;4364032;32;34032;-85
2023/06/10 10:11:23;;;;;;;5.97;3.35;;;;;;;25.95;48.90;98710.47;4368139;32;34145;-83
2023/06/10 10:13:52;;;;;;;6.47;2.90;;;;;;;25.50;50.67;98712.09;4369301;32;33814;-86
2023/06/10 10:16:27;;;;;;;5.45;3.10;;;;;;;25.19;51.51;98710.25;4368036;32;33329;-86
2023/06/10 10:18:59;;;;;;;5.93;3.65;;;;;;;24.81;52.51;98714.91;4351910;32;34423;-86
2023/06/10 10:21:32;;;;;;;8.02;3.50;;;;;;;25.08;51.94;98713.47;4362674;32;33489;-84
2023/06/10 10:24:07;;;;;;;5.47;3.00;;;;;;;25.17;51.76;98706.81;4360532;32;34488;-84
2023/06/10 10:26:36;;;;;;;7.37;3.33;;;;;;;24.82;53.42;98701.59;4374668;32;34722;-89
2023/06/10 10:29:14;;;;;;;5.32;3.22;;;;;;;25.19;52.90;98705.81;4360878;32;34592;-84
2023/06/10 10:31:44;;;;;;;8.68;3.67;;;;;;;25.35;53.77;98710.28;4374554;32;33609;-86
2023/06/10 10:34:16;;;;;;;4.80;3.17;;;;;;;25.28;52.17;98706.25;4372863;32;33262;-90
2023/06/10 10:36:44;;;;;;;7.30;3.45;;;;;;;25.26;52.41;98700.16;4352521;32;34983;-90
2023/06/10 10:39:12;;;;;;;4.68;2.97;;;;;;;24.79;53.69;98698.25;4369938;32;33825;-90
2023/06/10 10:41:40;;;;;;;7.07;3.03;;;;;;;24.60;53.38;98707.16;4374076;32;33798;-84
2023/06/10 10:44:09;;;;;;;4.72;3.10;;;;;;;24.97;53.18;98700.78;4347953;32;34626;-92
2023/06/10 10:46:44;;;;;;;5.25;3.33;;;;;;;24.88;53.30;98695.94;4359276;32;35038;-85
2023/06/10 10:49:14;;;;;;;10.23;7.47;;;;;;;25.11;52.02;98704.50;4363012;32;34872;-85
2023/06/10 10:51:56;;;;;;;14.73;10.40;;;;;;;25.03;53.02;98702.22;4368069;32;33388;-85
2023/06/10 10:54:31;;;;;;;13.62;11.43;;;;;;;25.15;54.11;98703.38;4374719;32;33930;-90
2023/06/10 10:57:12;;;;;;;16.65;12.05;;;;;;;25.32;53.89;98702.47;4370043;32;33922;-90
2023/06/10 10:59:55;;;;;;;13.43;12.02;;;;;;;24.98;54.24;98705.13;4362561;32;34512;-90
2023/06/10 11:02:44;;;;;;;14.15;12.48;;;;;;;24.97;53.11;98695.47;4369732;32;34552;-83
2023/06/10 11:05:16;;;;;;;13.90;12.05;;;;;;;24.94;53.70;98700.06;4368936;32;34350;-83
2023/06/10 11:07:57;;;;;;;14.87;12.13;;;;;;;24.76;52.93;98693.94;4353343;32;33885;-84
2023/06/10 11:10:30;;;;;;;13.60;11.75;;;;;;;24.62;53.77;98686.69;4361337;32;33876;-91
2023/06/10 11:12:59;;;;;;;14.20;10.80;;;;;;;24.59;53.11;98697.50;4367742;32;33309;-88
2023/06/10 11:15:30;;;;;;;12.68;11.02;;;;;;;24.49;53.52;98694.44;4329826;32;33244;-85
2023/06/10 11:18:10;;;;;;;15.43;11.25;;;;;;;24.73;54.45;98683.50;4373423;32;34063;-89
2023/06/10 11:20:50;;;;;;;13.68;9.48;;;;;;;25.03;54.62;98678.34;4366659;32;33922;-90
2023/06/10 11:23:26;;;;;;;9.68;8.00;;;;;;;24.78;51.20;98676.19;4374118;32;33524;-89
2023/06/10 11:26:26;;;;;;;12.13;9.30;;;;;;;24.88;52.12;98684.47;4374837;32;34874;-88
2023/06/10 11:28:58;;;;;;;13.35;9.75;;;;;;;24.54;52.23;98675.66;4337781;32;35042;-86
2023/06/10 11:31:50;;;;;;;10.60;9.25;;;;;;;24.81;51.93;98677.78;4362749;32;34852;-86
2023/06/10 11:34:24;;;;;;;13.10;9.57;;;;;;;25.33;52.68;98680.31;4337764;32;33265;-85
2023/06/10 11:36:53;;;;;;;10.57;8.35;;;;;;;25.41;53.17;98678.09;4361358;32;34642;-89
2023/06/10 11:39:23;;;;;;;10.07;8.75;;;;;;;25.35;50.89;98675.78;4345226;32;33847;-90